createdAt,value
2019-05-09T00:00:38.130Z,14.11
2019-05-09T00:03:09.047Z,14.06
2019-05-09T00:05:39.777Z,14.02
2019-05-09T00:08:10.686Z,13.83
2019-05-09T00:10:44.222Z,13.99
2019-05-09T00:13:14.034Z,14.01
2019-05-09T00:15:45.878Z,14.06
2019-05-09T00:18:17.019Z,14.06
2019-05-09T00:20:49.657Z,14.07
2019-05-09T00:23:20.326Z,14.00
2019-05-09T00:25:53.656Z,14.10
2019-05-09T00:28:25.263Z,14.01
2019-05-09T00:30:57.852Z,14.02
2019-05-09T00:33:34.298Z,13.94
2019-05-09T00:36:05.296Z,13.88
2019-05-09T00:38:37.593Z,13.90
2019-05-09T00:41:09.709Z,13.89
2019-05-09T00:43:43.608Z,13.81
2019-05-09T00:46:23.634Z,13.77
2019-05-09T00:49:04.908Z,13.76
2019-05-09T00:51:35.538Z,13.82
2019-05-09T00:54:06.976Z,13.73
2019-05-09T00:56:37.644Z,13.68
2019-05-09T00:59:08.585Z,13.71
2019-05-09T01:01:39.546Z,13.58
2019-05-09T01:04:10.477Z,13.52
2019-05-09T01:06:43.448Z,13.52
2019-05-09T01:09:14.155Z,13.49
2019-05-09T01:11:45.156Z,13.54
2019-05-09T01:14:16.085Z,13.44
2019-05-09T01:16:47.082Z,13.47
2019-05-09T01:19:18.036Z,13.38
2019-05-09T01:21:48.776Z,13.28
2019-05-09T01:24:19.809Z,13.30
2019-05-09T01:26:50.720Z,13.30
2019-05-09T01:29:23.051Z,13.31
2019-05-09T01:31:55.802Z,13.28
2019-05-09T01:34:28.400Z,13.28
2019-05-09T01:37:06.524Z,13.08
2019-05-09T01:39:37.774Z,13.12
2019-05-09T01:42:08.481Z,13.03
2019-05-09T01:44:39.446Z,12.92
2019-05-09T01:47:10.400Z,12.94
2019-05-09T01:49:43.018Z,12.98
2019-05-09T01:52:13.853Z,12.97
2019-05-09T01:54:46.199Z,12.93
2019-05-09T01:57:16.947Z,12.99
2019-05-09T01:59:48.877Z,12.94
2019-05-09T02:02:19.571Z,12.89
2019-05-09T02:04:53.310Z,12.84
2019-05-09T02:07:24.078Z,12.83
2019-05-09T02:09:55.048Z,12.89
2019-05-09T02:12:25.956Z,12.97
2019-05-09T02:15:03.728Z,12.89
2019-05-09T02:18:00.678Z,12.98
2019-05-09T02:20:24.168Z,12.91
2019-05-09T02:22:54.968Z,12.93
2019-05-09T02:25:25.907Z,12.87
2019-05-09T02:27:56.854Z,12.84
2019-05-09T02:30:27.640Z,12.68
2019-05-09T02:32:58.600Z,12.64
2019-05-09T02:35:38.830Z,12.67
2019-05-09T02:38:02.203Z,12.61
2019-05-09T02:40:32.880Z,12.55
2019-05-09T02:43:03.666Z,12.55
2019-05-09T02:45:41.870Z,12.58
2019-05-09T02:48:12.597Z,12.62
2019-05-09T02:50:43.521Z,12.61
2019-05-09T02:53:14.511Z,12.57
2019-05-09T02:55:45.433Z,12.58
2019-05-09T02:58:20.416Z,12.69
2019-05-09T03:01:00.751Z,12.53
2019-05-09T03:03:33.104Z,12.50
2019-05-09T03:06:04.143Z,12.46
2019-05-09T03:08:38.215Z,12.43
2019-05-09T03:11:09.739Z,12.40
2019-05-09T03:13:40.462Z,12.38
2019-05-09T03:16:12.810Z,12.49
2019-05-09T03:18:43.441Z,12.54
2019-05-09T03:21:19.126Z,12.48
2019-05-09T03:23:50.243Z,12.43
2019-05-09T03:26:22.586Z,12.44
2019-05-09T03:29:11.376Z,12.25
2019-05-09T03:31:43.626Z,12.37
2019-05-09T03:34:14.305Z,12.43
2019-05-09T03:36:47.574Z,12.53
2019-05-09T03:39:18.529Z,12.29
2019-05-09T03:41:49.623Z,12.41
2019-05-09T03:44:20.591Z,12.43
2019-05-09T03:46:57.901Z,12.41
2019-05-09T03:49:28.487Z,12.33
2019-05-09T03:52:00.650Z,12.37
2019-05-09T03:54:31.627Z,12.44
2019-05-09T03:57:04.910Z,12.51
2019-05-09T03:59:37.527Z,12.57
2019-05-09T04:02:10.257Z,12.57
2019-05-09T04:04:41.229Z,12.56
2019-05-09T04:07:11.901Z,12.61
2019-05-09T04:09:42.969Z,12.54
2019-05-09T04:12:14.057Z,12.59
2019-05-09T04:14:47.936Z,12.54
2019-05-09T04:17:20.258Z,12.65
2019-05-09T04:19:51.345Z,12.64
2019-05-09T04:22:23.115Z,12.65
2019-05-09T04:24:54.416Z,12.65
2019-05-09T04:27:29.854Z,12.53
2019-05-09T04:30:00.665Z,12.56
2019-05-09T04:32:31.535Z,12.54
2019-05-09T04:35:02.232Z,12.62
2019-05-09T04:37:33.750Z,12.55
2019-05-09T04:40:08.121Z,12.73
2019-05-09T04:42:42.967Z,12.66
2019-05-09T04:45:17.250Z,12.67
2019-05-09T04:47:47.898Z,12.55
2019-05-09T04:50:23.470Z,12.65
2019-05-09T04:52:51.744Z,12.57
2019-05-09T04:55:27.243Z,12.50
2019-05-09T04:58:00.223Z,12.54
2019-05-09T05:00:35.084Z,12.55
2019-05-09T05:03:07.951Z,12.55
2019-05-09T05:05:40.140Z,12.58
2019-05-09T05:08:12.078Z,12.60
2019-05-09T05:10:42.751Z,12.66
2019-05-09T05:13:24.137Z,12.63
2019-05-09T05:15:47.507Z,12.63
2019-05-09T05:18:20.280Z,12.63
2019-05-09T05:20:52.209Z,12.65
2019-05-09T05:23:24.908Z,12.71
2019-05-09T05:25:58.017Z,12.74
2019-05-09T05:28:28.771Z,12.79
2019-05-09T05:31:00.456Z,12.77
2019-05-09T05:33:41.668Z,12.81
2019-05-09T05:36:20.005Z,12.92
2019-05-09T05:38:50.786Z,12.93
2019-05-09T05:41:21.483Z,13.06
2019-05-09T05:43:52.222Z,13.11
2019-05-09T05:46:22.670Z,13.14
2019-05-09T05:48:57.802Z,13.14
2019-05-09T05:51:30.926Z,13.18
2019-05-09T05:54:02.755Z,13.14
2019-05-09T05:56:33.543Z,13.04
2019-05-09T05:59:04.594Z,13.08
2019-05-09T06:01:38.081Z,12.99
2019-05-09T06:04:08.288Z,12.95
2019-05-09T06:06:39.334Z,13.04
2019-05-09T06:09:10.920Z,12.93
2019-05-09T06:11:42.142Z,12.90
2019-05-09T06:14:12.852Z,12.91
2019-05-09T06:16:43.532Z,12.92
2019-05-09T06:19:14.219Z,12.95
2019-05-09T06:21:45.142Z,12.97
2019-05-09T06:24:17.723Z,12.98
2019-05-09T06:26:48.337Z,13.01
2019-05-09T06:29:19.405Z,13.16
2019-05-09T06:31:50.599Z,13.16
2019-05-09T06:34:21.308Z,13.13
2019-05-09T06:36:52.384Z,13.19
2019-05-09T06:39:23.238Z,13.18
2019-05-09T06:41:53.913Z,13.23
2019-05-09T06:44:28.221Z,13.30
2019-05-09T06:47:00.819Z,13.23
2019-05-09T06:49:33.171Z,13.12
2019-05-09T06:52:04.229Z,13.22
2019-05-09T06:54:41.777Z,13.33
2019-05-09T06:57:13.401Z,13.59
2019-05-09T06:59:44.850Z,13.67
2019-05-09T07:02:20.099Z,13.80
2019-05-09T07:04:52.779Z,13.83
2019-05-09T07:07:34.021Z,14.16
2019-05-09T07:10:07.953Z,14.06
2019-05-09T07:12:38.739Z,14.23
2019-05-09T07:15:09.759Z,14.40
2019-05-09T07:17:40.448Z,14.58
2019-05-09T07:20:11.468Z,14.38
2019-05-09T07:22:48.123Z,14.08
2019-05-09T07:25:23.879Z,13.92
2019-05-09T07:27:54.565Z,13.95
2019-05-09T07:30:43.550Z,14.05
2019-05-09T07:33:19.551Z,14.24
2019-05-09T07:35:50.794Z,14.15
2019-05-09T07:38:31.537Z,14.70
2019-05-09T07:41:02.485Z,15.00
2019-05-09T07:43:33.628Z,14.88
2019-05-09T07:46:08.530Z,14.99
2019-05-09T07:48:40.350Z,14.53
2019-05-09T07:51:11.181Z,14.30
2019-05-09T07:53:42.489Z,14.44
2019-05-09T07:56:14.281Z,14.66
2019-05-09T07:58:45.000Z,14.58
2019-05-09T08:01:15.679Z,14.92
2019-05-09T08:03:48.925Z,15.18
2019-05-09T08:06:19.405Z,15.13
2019-05-09T08:08:50.379Z,14.83
2019-05-09T08:11:21.079Z,14.93
2019-05-09T08:13:52.304Z,15.17
2019-05-09T08:16:23.272Z,15.19
2019-05-09T08:18:53.964Z,15.45
2019-05-09T08:21:24.972Z,15.40
2019-05-09T08:23:58.095Z,15.14
2019-05-09T08:26:30.064Z,15.25
2019-05-09T08:29:02.525Z,15.02
2019-05-09T08:31:33.240Z,15.20
2019-05-09T08:34:03.897Z,15.51
2019-05-09T08:36:34.914Z,15.66
2019-05-09T08:39:08.445Z,15.87
2019-05-09T08:41:39.284Z,16.15
2019-05-09T08:44:10.484Z,15.73
2019-05-09T08:46:41.616Z,15.58
2019-05-09T08:49:12.327Z,15.29
2019-05-09T08:52:06.630Z,15.51
2019-05-09T08:54:38.019Z,15.10
2019-05-09T08:57:10.357Z,15.28
2019-05-09T08:59:41.396Z,15.60
2019-05-09T09:02:16.543Z,15.63
2019-05-09T09:04:44.799Z,15.51
2019-05-09T09:07:15.486Z,15.01
2019-05-09T09:09:48.237Z,14.92
2019-05-09T09:12:29.864Z,14.91
2019-05-09T09:14:51.465Z,14.70
2019-05-09T09:17:22.498Z,14.88
2019-05-09T09:19:53.274Z,15.21
2019-05-09T09:22:24.325Z,15.39
2019-05-09T09:24:58.602Z,15.59
2019-05-09T09:27:31.541Z,15.55
2019-05-09T09:30:16.442Z,15.45
2019-05-09T09:32:35.388Z,15.74
2019-05-09T09:35:08.987Z,16.11
2019-05-09T09:37:48.314Z,15.98
2019-05-09T09:40:13.515Z,15.98
2019-05-09T09:42:44.545Z,16.43
2019-05-09T09:45:18.404Z,16.87
2019-05-09T09:47:49.833Z,16.97
2019-05-09T09:50:20.531Z,17.11
2019-05-09T09:52:51.918Z,16.65
2019-05-09T09:55:23.101Z,17.22
2019-05-09T09:57:57.701Z,16.95
2019-05-09T10:01:04.053Z,16.90
2019-05-09T10:03:35.748Z,16.68
2019-05-09T10:06:06.932Z,16.94
2019-05-09T10:08:39.510Z,17.48
2019-05-09T10:11:11.537Z,17.37
2019-05-09T10:13:42.784Z,17.88
2019-05-09T10:16:29.041Z,18.26
2019-05-09T10:18:58.608Z,17.79
2019-05-09T10:21:33.577Z,17.76
2019-05-09T10:24:05.053Z,17.22
2019-05-09T10:26:39.022Z,17.59
2019-05-09T10:29:09.981Z,17.99
2019-05-09T10:31:41.124Z,17.95
2019-05-09T10:34:12.015Z,17.85
2019-05-09T10:36:42.685Z,17.92
2019-05-09T10:39:13.690Z,18.64
2019-05-09T10:41:44.649Z,18.76
2019-05-09T10:44:18.025Z,18.99
2019-05-09T10:47:02.100Z,18.69
2019-05-09T10:49:31.901Z,17.44
2019-05-09T10:52:02.911Z,17.44
2019-05-09T10:54:34.891Z,17.49
2019-05-09T10:57:05.681Z,17.60
2019-05-09T10:59:37.659Z,17.06
2019-05-09T11:02:09.515Z,17.50
2019-05-09T11:04:44.175Z,17.44
2019-05-09T11:07:30.632Z,17.53
2019-05-09T11:10:22.605Z,17.56
2019-05-09T11:12:37.162Z,17.58
2019-05-09T11:15:09.159Z,17.60
2019-05-09T11:17:40.163Z,17.57
2019-05-09T11:20:12.125Z,17.36
2019-05-09T11:22:43.008Z,17.43
2019-05-09T11:25:13.939Z,17.35
2019-05-09T11:27:44.605Z,17.95
2019-05-09T11:30:17.666Z,18.68
2019-05-09T11:32:48.541Z,19.15
2019-05-09T11:35:19.537Z,19.84
2019-05-09T11:37:50.794Z,20.13
2019-05-09T11:40:21.465Z,19.98
2019-05-09T11:42:52.419Z,20.06
2019-05-09T11:45:23.379Z,20.64
2019-05-09T11:47:54.428Z,21.25
2019-05-09T11:50:25.146Z,20.70
2019-05-09T11:52:56.205Z,20.03
2019-05-09T11:55:32.396Z,19.70
2019-05-09T11:57:59.591Z,19.50
2019-05-09T12:00:30.284Z,19.21
2019-05-09T12:03:00.972Z,18.81
2019-05-09T12:05:31.993Z,18.31
2019-05-09T12:08:02.758Z,18.06
2019-05-09T12:10:33.849Z,17.77
2019-05-09T12:13:04.814Z,18.00
2019-05-09T12:15:38.762Z,18.02
2019-05-09T12:18:11.719Z,17.84
2019-05-09T12:20:42.620Z,17.82
2019-05-09T12:23:13.875Z,17.77
2019-05-09T12:25:45.038Z,17.70
2019-05-09T12:28:15.713Z,17.54
2019-05-09T12:30:48.995Z,17.39
2019-05-09T12:33:19.217Z,17.26
2019-05-09T12:36:04.096Z,17.15
2019-05-09T12:38:34.788Z,17.21
2019-05-09T12:41:07.846Z,17.28
2019-05-09T12:43:38.311Z,17.22
2019-05-09T12:46:09.689Z,17.32
2019-05-09T12:48:40.853Z,17.49
2019-05-09T12:51:14.022Z,17.88
2019-05-09T12:53:48.170Z,17.95
2019-05-09T12:56:18.809Z,18.09
2019-05-09T12:58:50.008Z,18.37
2019-05-09T13:01:21.208Z,18.49
2019-05-09T13:03:52.325Z,18.79
2019-05-09T13:06:23.138Z,19.10
2019-05-09T13:08:54.424Z,19.39
2019-05-09T13:11:27.417Z,19.73
2019-05-09T13:13:58.104Z,19.65
2019-05-09T13:16:47.432Z,19.30
2019-05-09T13:19:09.078Z,19.34
2019-05-09T13:21:40.096Z,19.21
2019-05-09T13:24:11.321Z,18.90
2019-05-09T13:26:43.745Z,18.95
2019-05-09T13:29:14.793Z,19.13
2019-05-09T13:31:48.257Z,18.99
2019-05-09T13:34:19.078Z,18.96
2019-05-09T13:36:49.908Z,18.97
2019-05-09T13:39:20.749Z,18.85
2019-05-09T13:41:51.477Z,18.72
2019-05-09T13:44:22.669Z,18.79
2019-05-09T13:46:53.348Z,18.79
2019-05-09T13:49:24.195Z,18.84
2019-05-09T13:52:01.290Z,19.05
2019-05-09T13:54:28.511Z,19.25
2019-05-09T13:57:01.516Z,19.53
2019-05-09T13:59:33.614Z,19.85
2019-05-09T14:02:04.773Z,19.86
2019-05-09T14:04:38.846Z,19.85
2019-05-09T14:07:08.498Z,19.74
2019-05-09T14:09:39.415Z,19.59
2019-05-09T14:12:10.638Z,19.47
2019-05-09T14:14:41.558Z,19.57
2019-05-09T14:17:13.899Z,19.66
2019-05-09T14:19:46.857Z,19.67
2019-05-09T14:22:18.620Z,19.00
2019-05-09T14:24:49.315Z,18.69
2019-05-09T14:27:20.186Z,18.93
2019-05-09T14:29:51.200Z,18.61
2019-05-09T14:32:22.226Z,18.16
2019-05-09T14:34:52.990Z,18.29
2019-05-09T14:37:24.112Z,18.48
2019-05-09T14:39:58.833Z,18.59
2019-05-09T14:42:29.049Z,18.64
2019-05-09T14:45:00.311Z,18.78
2019-05-09T14:47:31.484Z,18.35
2019-05-09T14:50:02.181Z,18.56
2019-05-09T14:52:33.369Z,18.70
2019-05-09T14:55:08.249Z,18.87
2019-05-09T14:57:38.936Z,18.52
2019-05-09T15:00:11.735Z,18.56
2019-05-09T15:02:42.675Z,18.55
2019-05-09T15:05:14.023Z,18.62
2019-05-09T15:07:47.663Z,18.53
2019-05-09T15:10:18.936Z,18.60
2019-05-09T15:12:50.068Z,18.84
2019-05-09T15:15:20.951Z,18.94
2019-05-09T15:17:52.129Z,18.62
2019-05-09T15:20:23.402Z,18.75
2019-05-09T15:22:54.053Z,18.93
2019-05-09T15:25:24.965Z,18.61
2019-05-09T15:27:57.975Z,18.53
2019-05-09T15:30:28.865Z,18.37
2019-05-09T15:32:59.659Z,18.40
2019-05-09T15:35:31.162Z,18.70
2019-05-09T15:38:02.331Z,18.76
2019-05-09T15:40:33.216Z,18.94
2019-05-09T15:43:04.377Z,18.84
2019-05-09T15:45:36.922Z,18.69
2019-05-09T15:48:07.776Z,18.70
2019-05-09T15:50:38.410Z,18.82
2019-05-09T15:53:09.258Z,18.84
2019-05-09T15:55:44.012Z,18.99
2019-05-09T15:58:14.948Z,19.04
2019-05-09T16:00:47.828Z,19.27
2019-05-09T16:03:18.782Z,19.27
2019-05-09T16:05:49.818Z,19.28
2019-05-09T16:08:21.713Z,19.18
2019-05-09T16:10:52.884Z,19.12
2019-05-09T16:13:25.150Z,18.96
2019-05-09T16:15:57.578Z,19.03
2019-05-09T16:18:29.430Z,19.20
2019-05-09T16:21:00.199Z,19.00
2019-05-09T16:23:31.021Z,19.03
2019-05-09T16:26:02.083Z,18.92
2019-05-09T16:28:32.995Z,18.99
2019-05-09T16:31:04.083Z,18.91
2019-05-09T16:33:35.091Z,19.02
2019-05-09T16:36:07.481Z,19.08
2019-05-09T16:38:45.689Z,19.02
2019-05-09T16:41:11.234Z,19.26
2019-05-09T16:43:42.216Z,19.16
2019-05-09T16:46:13.048Z,19.07
2019-05-09T16:48:44.806Z,18.99
2019-05-09T16:51:18.185Z,18.86
2019-05-09T16:53:49.873Z,18.62
2019-05-09T16:56:21.408Z,18.74
2019-05-09T16:58:53.954Z,18.70
2019-05-09T17:01:25.035Z,18.42
2019-05-09T17:03:57.522Z,18.28
2019-05-09T17:06:29.210Z,18.19
2019-05-09T17:09:00.826Z,17.94
2019-05-09T17:11:35.321Z,18.01
2019-05-09T17:14:08.273Z,17.95
2019-05-09T17:16:39.841Z,18.09
2019-05-09T17:19:11.186Z,18.21
2019-05-09T17:21:43.494Z,18.31
2019-05-09T17:24:15.910Z,18.33
2019-05-09T17:26:48.836Z,18.31
2019-05-09T17:29:19.691Z,18.22
2019-05-09T17:31:50.778Z,18.24
2019-05-09T17:34:21.831Z,18.21
2019-05-09T17:36:53.110Z,18.20
2019-05-09T17:39:24.147Z,18.27
2019-05-09T17:41:54.915Z,17.97
2019-05-09T17:44:28.095Z,17.87
2019-05-09T17:46:58.382Z,17.89
2019-05-09T17:49:29.671Z,17.86
2019-05-09T17:52:00.946Z,17.74
2019-05-09T17:54:32.130Z,17.67
2019-05-09T17:57:03.499Z,17.61
2019-05-09T17:59:34.673Z,17.60
2019-05-09T18:02:05.525Z,17.58
2019-05-09T18:04:37.851Z,17.56
2019-05-09T18:07:09.264Z,17.53
2019-05-09T18:09:40.456Z,17.47
2019-05-09T18:12:11.642Z,17.54
2019-05-09T18:14:42.763Z,17.41
2019-05-09T18:17:20.218Z,17.34
2019-05-09T18:19:51.012Z,17.33
2019-05-09T18:22:22.048Z,17.32
2019-05-09T18:24:53.093Z,17.40
2019-05-09T18:27:24.202Z,17.31
2019-05-09T18:29:58.108Z,17.32
2019-05-09T18:32:38.343Z,17.23
2019-05-09T18:35:27.819Z,17.16
2019-05-09T18:37:59.496Z,17.10
2019-05-09T18:40:30.742Z,17.01
2019-05-09T18:43:01.518Z,16.95
2019-05-09T18:45:32.255Z,16.94
2019-05-09T18:48:02.937Z,16.82
2019-05-09T18:50:34.000Z,16.77
2019-05-09T18:53:05.110Z,16.75
2019-05-09T18:55:35.913Z,16.73
2019-05-09T18:58:06.786Z,16.67
2019-05-09T19:03:04.888Z,16.70
2019-05-09T19:05:35.686Z,16.64
2019-05-09T19:08:06.867Z,16.64
2019-05-09T19:10:37.693Z,16.60
2019-05-09T19:13:08.737Z,16.57
2019-05-09T19:15:41.665Z,16.63
2019-05-09T19:18:25.808Z,16.57
2019-05-09T19:20:58.629Z,16.72
2019-05-09T19:23:29.761Z,16.56
2019-05-09T19:26:02.466Z,16.42
2019-05-09T19:28:34.679Z,16.46
2019-05-09T19:31:05.382Z,16.41
2019-05-09T19:33:36.481Z,16.36
2019-05-09T19:36:07.691Z,16.40
2019-05-09T19:38:42.393Z,16.49
2019-05-09T19:41:13.378Z,16.52
2019-05-09T19:43:44.398Z,16.41
2019-05-09T19:46:15.484Z,16.41
2019-05-09T19:48:46.485Z,16.43
2019-05-09T19:51:17.510Z,16.45
2019-05-09T19:53:48.483Z,16.42
2019-05-09T19:56:19.224Z,16.30
2019-05-09T19:58:49.912Z,16.27
2019-05-09T20:01:20.643Z,16.30
2019-05-09T20:03:51.670Z,16.28
2019-05-09T20:06:22.627Z,16.32
2019-05-09T20:08:53.461Z,16.28
2019-05-09T20:11:35.346Z,16.19
2019-05-09T20:14:10.436Z,16.11
2019-05-09T20:16:43.147Z,16.12
2019-05-09T20:19:14.890Z,15.96
2019-05-09T20:21:46.325Z,15.88
2019-05-09T20:24:17.465Z,15.94
2019-05-09T20:26:48.626Z,15.94
2019-05-09T20:29:21.269Z,15.97
2019-05-09T20:31:53.064Z,15.86
2019-05-09T20:34:23.770Z,15.79
2019-05-09T20:36:54.547Z,15.78
2019-05-09T20:39:25.485Z,15.79
2019-05-09T20:41:56.702Z,15.81
2019-05-09T20:44:27.938Z,15.88
2019-05-09T20:46:59.281Z,15.81
2019-05-09T20:49:30.527Z,15.94
2019-05-09T20:52:01.773Z,15.88
2019-05-09T20:54:32.930Z,15.98
2019-05-09T20:57:04.281Z,15.99
2019-05-09T20:59:35.513Z,15.89
2019-05-09T21:02:06.820Z,15.87
2019-05-09T21:04:38.179Z,15.84
2019-05-09T21:07:09.038Z,15.84
2019-05-09T21:09:40.289Z,15.78
2019-05-09T21:12:11.502Z,15.78
2019-05-09T21:14:43.771Z,15.73
2019-05-09T21:17:14.945Z,15.67
2019-05-09T21:19:46.787Z,15.63
2019-05-09T21:22:17.727Z,15.61
2019-05-09T21:24:48.694Z,15.42
2019-05-09T21:27:19.934Z,15.40
2019-05-09T21:29:50.793Z,15.31
2019-05-09T21:32:22.401Z,15.27
2019-05-09T21:34:53.844Z,15.31
2019-05-09T21:37:24.593Z,15.29
2019-05-09T21:39:55.284Z,15.25
2019-05-09T21:42:25.948Z,15.38
2019-05-09T21:45:00.060Z,15.11
2019-05-09T21:47:31.008Z,15.03
2019-05-09T21:50:02.083Z,15.05
2019-05-09T21:52:34.438Z,15.04
2019-05-09T21:55:06.826Z,15.00
2019-05-09T21:57:37.759Z,15.01
2019-05-09T22:00:16.358Z,15.01
2019-05-09T22:02:51.241Z,14.99
2019-05-09T22:05:22.361Z,14.97
2019-05-09T22:07:53.365Z,14.96
2019-05-09T22:10:24.015Z,14.95
2019-05-09T22:12:55.034Z,14.88
2019-05-09T22:15:26.063Z,14.88
2019-05-09T22:17:57.261Z,14.88
2019-05-09T22:20:28.263Z,14.80
2019-05-09T22:22:59.288Z,14.69
2019-05-09T22:25:30.336Z,14.68
2019-05-09T22:28:01.001Z,14.58
2019-05-09T22:30:31.681Z,14.57
2019-05-09T22:33:02.337Z,14.59
2019-05-09T22:35:33.113Z,14.60
2019-05-09T22:38:03.802Z,14.55
2019-05-09T22:40:35.461Z,14.53
2019-05-09T22:43:06.538Z,14.53
2019-05-09T22:45:37.898Z,14.52
2019-05-09T22:48:08.910Z,14.48
2019-05-09T22:50:39.662Z,14.41
2019-05-09T22:53:10.626Z,14.40
2019-05-09T22:55:41.845Z,14.30
2019-05-09T22:58:12.511Z,14.22
2019-05-09T23:00:43.258Z,14.13
2019-05-09T23:03:14.040Z,14.12
2019-05-09T23:05:44.747Z,14.10
2019-05-09T23:08:15.851Z,14.06
2019-05-09T23:10:46.497Z,14.04
2019-05-09T23:13:17.594Z,13.93
2019-05-09T23:15:48.630Z,13.94
2019-05-09T23:18:19.646Z,13.99
2019-05-09T23:20:52.083Z,13.99
2019-05-09T23:23:30.701Z,13.93
2019-05-09T23:26:01.797Z,13.98
2019-05-09T23:28:32.910Z,13.91
2019-05-09T23:31:05.235Z,13.84
2019-05-09T23:33:38.084Z,13.84
2019-05-09T23:36:09.135Z,13.81
2019-05-09T23:38:58.216Z,13.73
2019-05-09T23:41:29.787Z,13.74
2019-05-09T23:44:00.506Z,13.74
2019-05-09T23:46:31.510Z,13.71
2019-05-09T23:49:02.556Z,13.72
2019-05-09T23:51:49.628Z,13.68
2019-05-09T23:54:46.712Z,13.65
2019-05-09T23:57:31.203Z,13.63
